﻿<?xml version="1.0" encoding="UTF-8" standalone="no"?>
<gpx xmlns="http://www.topografix.com/GPX/1/1" creator="GPS-Track-Analyse.NET 4.x" version="1.1" xmlns:xsi="http://www.w3.org/2001/XMLSchema-instance" xsi:schemaLocation="http://www.topografix.com/GPX/1/1 http://www.topografix.com/GPX/1/1/gpx.xsd">
<metadata>
<link href="http://www.gps-freeware.de">
<text>Download GPS-Track-Analyse</text>
</link>
<time>2009-07-14T15:01:52.250Z</time>
<bounds maxlat="28.134702" maxlon="-17.214751" minlat="28.109801" minlon="-17.248380" />
</metadata>
<trk>
<name>ACTIVE LOG</name>
<trkseg>
<trkpt lat="28.115839" lon="-17.243238">
<ele>1005.196000</ele>
<time>2009-06-03T09:38:50.000Z</time>
</trkpt>
<trkpt lat="28.115839" lon="-17.243238">
<ele>1005.196000</ele>
<time>2009-06-03T09:38:52.000Z</time>
</trkpt>
<trkpt lat="28.115839" lon="-17.243238">
<ele>1005.196000</ele>
<time>2009-06-03T09:38:53.000Z</time>
</trkpt>
<trkpt lat="28.115821" lon="-17.243248">
<ele>1004.235000</ele>
<time>2009-06-03T09:43:02.000Z</time>
</trkpt>
<trkpt lat="28.115828" lon="-17.243167">
<ele>1005.196000</ele>
<time>2009-06-03T09:43:24.000Z</time>
</trkpt>
<trkpt lat="28.115841" lon="-17.243159">
<ele>1004.715000</ele>
<time>2009-06-03T09:43:27.000Z</time>
</trkpt>
<trkpt lat="28.115990" lon="-17.243099">
<ele>1004.715000</ele>
<time>2009-06-03T09:43:40.000Z</time>
</trkpt>
<trkpt lat="28.116148" lon="-17.243043">
<ele>1005.196000</ele>
<time>2009-06-03T09:43:55.000Z</time>
</trkpt>
<trkpt lat="28.116160" lon="-17.243039">
<ele>1005.677000</ele>
<time>2009-06-03T09:43:56.000Z</time>
</trkpt>
<trkpt lat="28.116289" lon="-17.242967">
<ele>1005.677000</ele>
<time>2009-06-03T09:44:16.000Z</time>
</trkpt>
<trkpt lat="28.116403" lon="-17.242873">
<ele>1003.754000</ele>
<time>2009-06-03T09:44:36.000Z</time>
</trkpt>
<trkpt lat="28.116470" lon="-17.242829">
<ele>1002.312000</ele>
<time>2009-06-03T09:44:54.000Z</time>
</trkpt>
<trkpt lat="28.116575" lon="-17.242872">
<ele>999.427700</ele>
<time>2009-06-03T09:45:15.000Z</time>
</trkpt>
<trkpt lat="28.116681" lon="-17.242948">
<ele>997.024400</ele>
<time>2009-06-03T09:45:47.000Z</time>
</trkpt>
<trkpt lat="28.116806" lon="-17.243012">
<ele>994.140600</ele>
<time>2009-06-03T09:46:04.000Z</time>
</trkpt>
<trkpt lat="28.116978" lon="-17.243208">
<ele>990.775900</ele>
<time>2009-06-03T09:46:33.000Z</time>
</trkpt>
<trkpt lat="28.117069" lon="-17.243210">
<ele>989.334000</ele>
<time>2009-06-03T09:46:48.000Z</time>
</trkpt>
<trkpt lat="28.116993" lon="-17.243316">
<ele>986.450000</ele>
<time>2009-06-03T09:47:26.000Z</time>
</trkpt>
<trkpt lat="28.117151" lon="-17.243308">
<ele>983.565900</ele>
<time>2009-06-03T09:47:50.000Z</time>
</trkpt>
<trkpt lat="28.117215" lon="-17.243279">
<ele>981.162800</ele>
<time>2009-06-03T09:48:08.000Z</time>
</trkpt>
<trkpt lat="28.117356" lon="-17.243252">
<ele>978.278800</ele>
<time>2009-06-03T09:48:31.000Z</time>
</trkpt>
<trkpt lat="28.117429" lon="-17.243154">
<ele>975.875500</ele>
<time>2009-06-03T09:48:52.000Z</time>
</trkpt>
<trkpt lat="28.117436" lon="-17.243121">
<ele>974.914300</ele>
<time>2009-06-03T09:49:18.000Z</time>
</trkpt>
<trkpt lat="28.117474" lon="-17.243054">
<ele>973.952900</ele>
<time>2009-06-03T09:49:26.000Z</time>
</trkpt>
<trkpt lat="28.117545" lon="-17.242943">
<ele>972.991700</ele>
<time>2009-06-03T09:49:39.000Z</time>
</trkpt>
<trkpt lat="28.117633" lon="-17.242870">
<ele>970.588100</ele>
<time>2009-06-03T09:49:58.000Z</time>
</trkpt>
<trkpt lat="28.117721" lon="-17.242743">
<ele>970.107400</ele>
<time>2009-06-03T09:50:16.000Z</time>
</trkpt>
<trkpt lat="28.117783" lon="-17.242679">
<ele>971.068800</ele>
<time>2009-06-03T09:50:34.000Z</time>
</trkpt>
<trkpt lat="28.117812" lon="-17.242445">
<ele>971.068800</ele>
<time>2009-06-03T09:51:04.000Z</time>
</trkpt>
<trkpt lat="28.117733" lon="-17.242333">
<ele>969.627000</ele>
<time>2009-06-03T09:51:24.000Z</time>
</trkpt>
<trkpt lat="28.117603" lon="-17.242293">
<ele>968.184800</ele>
<time>2009-06-03T09:51:40.000Z</time>
</trkpt>
<trkpt lat="28.117544" lon="-17.242265">
<ele>964.820300</ele>
<time>2009-06-03T09:52:05.000Z</time>
</trkpt>
<trkpt lat="28.117525" lon="-17.242205">
<ele>961.455800</ele>
<time>2009-06-03T09:52:30.000Z</time>
</trkpt>
<trkpt lat="28.117424" lon="-17.242108">
<ele>959.052500</ele>
<time>2009-06-03T09:52:57.000Z</time>
</trkpt>
<trkpt lat="28.117386" lon="-17.242034">
<ele>957.610600</ele>
<time>2009-06-03T09:53:16.000Z</time>
</trkpt>
<trkpt lat="28.117338" lon="-17.242021">
<ele>955.687700</ele>
<time>2009-06-03T09:53:37.000Z</time>
</trkpt>
<trkpt lat="28.117281" lon="-17.241992">
<ele>952.323000</ele>
<time>2009-06-03T09:53:58.000Z</time>
</trkpt>
<trkpt lat="28.117236" lon="-17.241900">
<ele>949.919900</ele>
<time>2009-06-03T09:54:26.000Z</time>
</trkpt>
<trkpt lat="28.117195" lon="-17.241782">
<ele>946.555400</ele>
<time>2009-06-03T09:54:49.000Z</time>
</trkpt>
<trkpt lat="28.117007" lon="-17.241528">
<ele>946.074700</ele>
<time>2009-06-03T09:55:27.000Z</time>
</trkpt>
<trkpt lat="28.116817" lon="-17.241381">
<ele>944.152100</ele>
<time>2009-06-03T09:55:54.000Z</time>
</trkpt>
<trkpt lat="28.116701" lon="-17.241183">
<ele>942.710200</ele>
<time>2009-06-03T09:56:21.000Z</time>
</trkpt>
<trkpt lat="28.116625" lon="-17.241019">
<ele>940.787400</ele>
<time>2009-06-03T09:56:45.000Z</time>
</trkpt>
<trkpt lat="28.116562" lon="-17.240894">
<ele>937.903300</ele>
<time>2009-06-03T09:57:09.000Z</time>
</trkpt>
<trkpt lat="28.116543" lon="-17.240765">
<ele>934.538800</ele>
<time>2009-06-03T09:57:36.000Z</time>
</trkpt>
<trkpt lat="28.116399" lon="-17.240657">
<ele>932.135500</ele>
<time>2009-06-03T09:57:56.000Z</time>
</trkpt>
<trkpt lat="28.116369" lon="-17.240595">
<ele>929.251500</ele>
<time>2009-06-03T09:58:11.000Z</time>
</trkpt>
<trkpt lat="28.116288" lon="-17.240461">
<ele>928.290300</ele>
<time>2009-06-03T09:58:32.000Z</time>
</trkpt>
<trkpt lat="28.116293" lon="-17.240426">
<ele>927.329100</ele>
<time>2009-06-03T09:59:20.000Z</time>
</trkpt>
<trkpt lat="28.116304" lon="-17.240498">
<ele>927.809600</ele>
<time>2009-06-03T10:00:07.000Z</time>
</trkpt>
<trkpt lat="28.116225" lon="-17.240473">
<ele>927.809600</ele>
<time>2009-06-03T10:01:07.000Z</time>
</trkpt>
<trkpt lat="28.116200" lon="-17.240488">
<ele>924.925800</ele>
<time>2009-06-03T10:01:22.000Z</time>
</trkpt>
<trkpt lat="28.116167" lon="-17.240468">
<ele>921.560800</ele>
<time>2009-06-03T10:01:41.000Z</time>
</trkpt>
<trkpt lat="28.116137" lon="-17.240457">
<ele>918.677000</ele>
<time>2009-06-03T10:02:03.000Z</time>
</trkpt>
<trkpt lat="28.116113" lon="-17.240386">
<ele>916.273700</ele>
<time>2009-06-03T10:02:21.000Z</time>
</trkpt>
<trkpt lat="28.116177" lon="-17.240297">
<ele>913.870400</ele>
<time>2009-06-03T10:02:38.000Z</time>
</trkpt>
<trkpt lat="28.116160" lon="-17.240215">
<ele>910.505900</ele>
<time>2009-06-03T10:02:59.000Z</time>
</trkpt>
<trkpt lat="28.116151" lon="-17.240103">
<ele>908.102800</ele>
<time>2009-06-03T10:03:16.000Z</time>
</trkpt>
<trkpt lat="28.116191" lon="-17.239986">
<ele>905.218500</ele>
<time>2009-06-03T10:03:33.000Z</time>
</trkpt>
<trkpt lat="28.116254" lon="-17.239951">
<ele>903.776600</ele>
<time>2009-06-03T10:03:46.000Z</time>
</trkpt>
<trkpt lat="28.116214" lon="-17.239879">
<ele>901.373300</ele>
<time>2009-06-03T10:04:05.000Z</time>
</trkpt>
<trkpt lat="28.116299" lon="-17.239823">
<ele>898.970000</ele>
<time>2009-06-03T10:04:23.000Z</time>
</trkpt>
<trkpt lat="28.116289" lon="-17.239765">
<ele>895.605500</ele>
<time>2009-06-03T10:04:44.000Z</time>
</trkpt>
<trkpt lat="28.116223" lon="-17.239677">
<ele>894.163600</ele>
<time>2009-06-03T10:05:02.000Z</time>
</trkpt>
<trkpt lat="28.116185" lon="-17.239671">
<ele>892.241000</ele>
<time>2009-06-03T10:05:20.000Z</time>
</trkpt>
<trkpt lat="28.116211" lon="-17.239628">
<ele>890.318100</ele>
<time>2009-06-03T10:05:36.000Z</time>
</trkpt>
<trkpt lat="28.116146" lon="-17.239527">
<ele>887.914800</ele>
<time>2009-06-03T10:05:58.000Z</time>
</trkpt>
<trkpt lat="28.116057" lon="-17.239459">
<ele>886.472900</ele>
<time>2009-06-03T10:07:47.000Z</time>
</trkpt>
<trkpt lat="28.115982" lon="-17.239408">
<ele>883.108200</ele>
<time>2009-06-03T10:08:30.000Z</time>
</trkpt>
<trkpt lat="28.115921" lon="-17.239441">
<ele>879.743700</ele>
<time>2009-06-03T10:09:54.000Z</time>
</trkpt>
<trkpt lat="28.115972" lon="-17.239364">
<ele>878.782500</ele>
<time>2009-06-03T10:10:19.000Z</time>
</trkpt>
<trkpt lat="28.115952" lon="-17.239350">
<ele>879.262900</ele>
<time>2009-06-03T10:10:54.000Z</time>
</trkpt>
<trkpt lat="28.115893" lon="-17.239228">
<ele>878.782500</ele>
<time>2009-06-03T10:12:00.000Z</time>
</trkpt>
<trkpt lat="28.115968" lon="-17.239272">
<ele>875.898200</ele>
<time>2009-06-03T10:12:35.000Z</time>
</trkpt>
<trkpt lat="28.115924" lon="-17.239257">
<ele>873.014400</ele>
<time>2009-06-03T10:12:54.000Z</time>
</trkpt>
<trkpt lat="28.115952" lon="-17.239183">
<ele>871.572300</ele>
<time>2009-06-03T10:13:30.000Z</time>
</trkpt>
<trkpt lat="28.116045" lon="-17.239280">
<ele>870.130400</ele>
<time>2009-06-03T10:14:35.000Z</time>
</trkpt>
<trkpt lat="28.116093" lon="-17.239156">
<ele>867.246600</ele>
<time>2009-06-03T10:15:10.000Z</time>
</trkpt>
<trkpt lat="28.116194" lon="-17.239124">
<ele>864.362500</ele>
<time>2009-06-03T10:15:27.000Z</time>
</trkpt>
<trkpt lat="28.116193" lon="-17.239025">
<ele>860.998000</ele>
<time>2009-06-03T10:15:44.000Z</time>
</trkpt>
<trkpt lat="28.116189" lon="-17.238947">
<ele>858.114000</ele>
<time>2009-06-03T10:16:00.000Z</time>
</trkpt>
<trkpt lat="28.116199" lon="-17.238789">
<ele>854.749300</ele>
<time>2009-06-03T10:16:20.000Z</time>
</trkpt>
<trkpt lat="28.116164" lon="-17.238607">
<ele>851.384800</ele>
<time>2009-06-03T10:16:40.000Z</time>
</trkpt>
<trkpt lat="28.116174" lon="-17.238493">
<ele>848.500700</ele>
<time>2009-06-03T10:17:06.000Z</time>
</trkpt>
<trkpt lat="28.116143" lon="-17.238292">
<ele>845.136200</ele>
<time>2009-06-03T10:17:31.000Z</time>
</trkpt>
<trkpt lat="28.116224" lon="-17.238161">
<ele>842.732900</ele>
<time>2009-06-03T10:17:49.000Z</time>
</trkpt>
<trkpt lat="28.116301" lon="-17.238120">
<ele>840.810100</ele>
<time>2009-06-03T10:18:06.000Z</time>
</trkpt>
<trkpt lat="28.116371" lon="-17.238039">
<ele>838.407000</ele>
<time>2009-06-03T10:18:22.000Z</time>
</trkpt>
<trkpt lat="28.116342" lon="-17.237905">
<ele>836.484400</ele>
<time>2009-06-03T10:18:42.000Z</time>
</trkpt>
<trkpt lat="28.116436" lon="-17.237789">
<ele>834.081100</ele>
<time>2009-06-03T10:19:31.000Z</time>
</trkpt>
<trkpt lat="28.116380" lon="-17.237802">
<ele>834.561800</ele>
<time>2009-06-03T10:20:19.000Z</time>
</trkpt>
<trkpt lat="28.116436" lon="-17.237709">
<ele>831.197300</ele>
<time>2009-06-03T10:20:46.000Z</time>
</trkpt>
<trkpt lat="28.116461" lon="-17.237582">
<ele>828.313200</ele>
<time>2009-06-03T10:21:11.000Z</time>
</trkpt>
<trkpt lat="28.116491" lon="-17.237488">
<ele>825.429000</ele>
<time>2009-06-03T10:21:33.000Z</time>
</trkpt>
<trkpt lat="28.116594" lon="-17.237539">
<ele>822.545200</ele>
<time>2009-06-03T10:22:05.000Z</time>
</trkpt>
<trkpt lat="28.116645" lon="-17.237480">
<ele>819.180700</ele>
<time>2009-06-03T10:22:27.000Z</time>
</trkpt>
<trkpt lat="28.116622" lon="-17.237373">
<ele>816.296600</ele>
<time>2009-06-03T10:22:48.000Z</time>
</trkpt>
<trkpt lat="28.116547" lon="-17.237227">
<ele>813.412800</ele>
<time>2009-06-03T10:23:12.000Z</time>
</trkpt>
<trkpt lat="28.116539" lon="-17.237137">
<ele>811.490000</ele>
<time>2009-06-03T10:23:53.000Z</time>
</trkpt>
<trkpt lat="28.116501" lon="-17.237111">
<ele>811.490000</ele>
<time>2009-06-03T10:25:40.000Z</time>
</trkpt>
<trkpt lat="28.116494" lon="-17.237222">
<ele>811.009300</ele>
<time>2009-06-03T10:26:15.000Z</time>
</trkpt>
<trkpt lat="28.116647" lon="-17.237001">
<ele>810.047900</ele>
<time>2009-06-03T10:26:50.000Z</time>
</trkpt>
<trkpt lat="28.116671" lon="-17.236740">
<ele>808.125500</ele>
<time>2009-06-03T10:27:16.000Z</time>
</trkpt>
<trkpt lat="28.116589" lon="-17.236376">
<ele>807.644800</ele>
<time>2009-06-03T10:27:42.000Z</time>
</trkpt>
<trkpt lat="28.116543" lon="-17.236122">
<ele>807.644800</ele>
<time>2009-06-03T10:28:06.000Z</time>
</trkpt>
<trkpt lat="28.116600" lon="-17.235846">
<ele>809.086700</ele>
<time>2009-06-03T10:28:23.000Z</time>
</trkpt>
<trkpt lat="28.116538" lon="-17.235638">
<ele>811.490000</ele>
<time>2009-06-03T10:28:47.000Z</time>
</trkpt>
<trkpt lat="28.116500" lon="-17.235318">
<ele>812.932100</ele>
<time>2009-06-03T10:29:12.000Z</time>
</trkpt>
<trkpt lat="28.116459" lon="-17.235075">
<ele>811.970700</ele>
<time>2009-06-03T10:29:33.000Z</time>
</trkpt>
<trkpt lat="28.116345" lon="-17.234722">
<ele>810.528600</ele>
<time>2009-06-03T10:30:02.000Z</time>
</trkpt>
<trkpt lat="28.116378" lon="-17.234381">
<ele>809.567400</ele>
<time>2009-06-03T10:30:28.000Z</time>
</trkpt>
<trkpt lat="28.116468" lon="-17.234291">
<ele>809.086700</ele>
<time>2009-06-03T10:30:51.000Z</time>
</trkpt>
<trkpt lat="28.116625" lon="-17.234264">
<ele>808.125500</ele>
<time>2009-06-03T10:31:03.000Z</time>
</trkpt>
<trkpt lat="28.116798" lon="-17.234007">
<ele>807.164100</ele>
<time>2009-06-03T10:31:29.000Z</time>
</trkpt>
<trkpt lat="28.116886" lon="-17.233771">
<ele>804.280300</ele>
<time>2009-06-03T10:31:53.000Z</time>
</trkpt>
<trkpt lat="28.116854" lon="-17.233494">
<ele>801.877000</ele>
<time>2009-06-03T10:32:19.000Z</time>
</trkpt>
<trkpt lat="28.116866" lon="-17.233413">
<ele>800.915500</ele>
<time>2009-06-03T10:34:10.000Z</time>
</trkpt>
<trkpt lat="28.116744" lon="-17.233170">
<ele>797.551000</ele>
<time>2009-06-03T10:35:08.000Z</time>
</trkpt>
<trkpt lat="28.116679" lon="-17.233016">
<ele>797.070300</ele>
<time>2009-06-03T10:35:28.000Z</time>
</trkpt>
<trkpt lat="28.116675" lon="-17.232898">
<ele>797.070300</ele>
<time>2009-06-03T10:35:47.000Z</time>
</trkpt>
<trkpt lat="28.116665" lon="-17.232937">
<ele>796.589800</ele>
<time>2009-06-03T10:36:38.000Z</time>
</trkpt>
<trkpt lat="28.116656" lon="-17.232954">
<ele>796.589800</ele>
<time>2009-06-03T10:40:40.000Z</time>
</trkpt>
<trkpt lat="28.116624" lon="-17.233031">
<ele>795.147500</ele>
<time>2009-06-03T10:41:16.000Z</time>
</trkpt>
<trkpt lat="28.116568" lon="-17.232900">
<ele>792.263700</ele>
<time>2009-06-03T10:41:37.000Z</time>
</trkpt>
<trkpt lat="28.116540" lon="-17.232745">
<ele>789.860400</ele>
<time>2009-06-03T10:41:52.000Z</time>
</trkpt>
<trkpt lat="28.116594" lon="-17.232675">
<ele>786.976300</ele>
<time>2009-06-03T10:42:12.000Z</time>
</trkpt>
<trkpt lat="28.116620" lon="-17.232640">
<ele>784.092500</ele>
<time>2009-06-03T10:42:33.000Z</time>
</trkpt>
<trkpt lat="28.116648" lon="-17.232540">
<ele>782.169900</ele>
<time>2009-06-03T10:42:49.000Z</time>
</trkpt>
<trkpt lat="28.116636" lon="-17.232433">
<ele>778.805200</ele>
<time>2009-06-03T10:43:10.000Z</time>
</trkpt>
<trkpt lat="28.116631" lon="-17.232358">
<ele>775.921100</ele>
<time>2009-06-03T10:43:32.000Z</time>
</trkpt>
<trkpt lat="28.116602" lon="-17.232281">
<ele>773.037400</ele>
<time>2009-06-03T10:43:51.000Z</time>
</trkpt>
<trkpt lat="28.116665" lon="-17.232198">
<ele>769.672900</ele>
<time>2009-06-03T10:44:08.000Z</time>
</trkpt>
<trkpt lat="28.116637" lon="-17.232057">
<ele>766.308100</ele>
<time>2009-06-03T10:44:31.000Z</time>
</trkpt>
<trkpt lat="28.116595" lon="-17.232058">
<ele>763.424100</ele>
<time>2009-06-03T10:44:54.000Z</time>
</trkpt>
<trkpt lat="28.116534" lon="-17.231959">
<ele>760.540000</ele>
<time>2009-06-03T10:45:14.000Z</time>
</trkpt>
<trkpt lat="28.116562" lon="-17.231862">
<ele>758.617400</ele>
<time>2009-06-03T10:45:32.000Z</time>
</trkpt>
<trkpt lat="28.116631" lon="-17.231896">
<ele>756.214100</ele>
<time>2009-06-03T10:45:50.000Z</time>
</trkpt>
<trkpt lat="28.116653" lon="-17.231785">
<ele>753.330300</ele>
<time>2009-06-03T10:46:14.000Z</time>
</trkpt>
<trkpt lat="28.116718" lon="-17.231755">
<ele>750.927000</ele>
<time>2009-06-03T10:46:33.000Z</time>
</trkpt>
<trkpt lat="28.116833" lon="-17.231739">
<ele>748.043200</ele>
<time>2009-06-03T10:46:59.000Z</time>
</trkpt>
<trkpt lat="28.116811" lon="-17.231759">
<ele>746.601100</ele>
<time>2009-06-03T10:47:35.000Z</time>
</trkpt>
<trkpt lat="28.116876" lon="-17.231793">
<ele>743.717000</ele>
<time>2009-06-03T10:47:58.000Z</time>
</trkpt>
<trkpt lat="28.117035" lon="-17.231842">
<ele>740.833000</ele>
<time>2009-06-03T10:48:14.000Z</time>
</trkpt>
<trkpt lat="28.117228" lon="-17.231759">
<ele>737.949200</ele>
<time>2009-06-03T10:48:35.000Z</time>
</trkpt>
<trkpt lat="28.117235" lon="-17.231691">
<ele>735.065400</ele>
<time>2009-06-03T10:50:24.000Z</time>
</trkpt>
<trkpt lat="28.117314" lon="-17.231617">
<ele>731.700400</ele>
<time>2009-06-03T10:50:47.000Z</time>
</trkpt>
<trkpt lat="28.117347" lon="-17.231515">
<ele>728.816700</ele>
<time>2009-06-03T10:51:05.000Z</time>
</trkpt>
<trkpt lat="28.117374" lon="-17.231403">
<ele>725.932600</ele>
<time>2009-06-03T10:51:34.000Z</time>
</trkpt>
<trkpt lat="28.117346" lon="-17.231273">
<ele>722.568100</ele>
<time>2009-06-03T10:52:18.000Z</time>
</trkpt>
<trkpt lat="28.117447" lon="-17.231120">
<ele>719.684300</ele>
<time>2009-06-03T10:52:48.000Z</time>
</trkpt>
<trkpt lat="28.117559" lon="-17.230949">
<ele>718.722900</ele>
<time>2009-06-03T10:53:09.000Z</time>
</trkpt>
<trkpt lat="28.117674" lon="-17.230825">
<ele>715.358200</ele>
<time>2009-06-03T10:53:27.000Z</time>
</trkpt>
<trkpt lat="28.117873" lon="-17.230678">
<ele>712.474100</ele>
<time>2009-06-03T10:53:51.000Z</time>
</trkpt>
<trkpt lat="28.117884" lon="-17.230554">
<ele>710.551500</ele>
<time>2009-06-03T10:54:09.000Z</time>
</trkpt>
<trkpt lat="28.117880" lon="-17.230383">
<ele>708.148400</ele>
<time>2009-06-03T10:54:30.000Z</time>
</trkpt>
<trkpt lat="28.117922" lon="-17.230355">
<ele>706.225600</ele>
<time>2009-06-03T10:54:47.000Z</time>
</trkpt>
<trkpt lat="28.117812" lon="-17.230218">
<ele>704.303200</ele>
<time>2009-06-03T10:55:02.000Z</time>
</trkpt>
<trkpt lat="28.117822" lon="-17.230062">
<ele>700.938500</ele>
<time>2009-06-03T10:55:23.000Z</time>
</trkpt>
<trkpt lat="28.117854" lon="-17.229983">
<ele>698.054400</ele>
<time>2009-06-03T10:55:48.000Z</time>
</trkpt>
<trkpt lat="28.117885" lon="-17.229818">
<ele>694.689700</ele>
<time>2009-06-03T10:56:09.000Z</time>
</trkpt>
<trkpt lat="28.117891" lon="-17.229658">
<ele>692.767300</ele>
<time>2009-06-03T10:56:27.000Z</time>
</trkpt>
<trkpt lat="28.117886" lon="-17.229512">
<ele>690.364000</ele>
<time>2009-06-03T10:56:46.000Z</time>
</trkpt>
<trkpt lat="28.117959" lon="-17.229406">
<ele>688.441400</ele>
<time>2009-06-03T10:57:07.000Z</time>
</trkpt>
<trkpt lat="28.118018" lon="-17.229283">
<ele>685.076900</ele>
<time>2009-06-03T10:57:32.000Z</time>
</trkpt>
<trkpt lat="28.118040" lon="-17.229248">
<ele>682.192600</ele>
<time>2009-06-03T10:57:53.000Z</time>
</trkpt>
<trkpt lat="28.118245" lon="-17.229228">
<ele>679.308600</ele>
<time>2009-06-03T10:58:14.000Z</time>
</trkpt>
<trkpt lat="28.118244" lon="-17.229083">
<ele>676.905500</ele>
<time>2009-06-03T10:58:46.000Z</time>
</trkpt>
<trkpt lat="28.118290" lon="-17.228930">
<ele>674.021500</ele>
<time>2009-06-03T10:59:20.000Z</time>
</trkpt>
<trkpt lat="28.118401" lon="-17.228833">
<ele>674.021500</ele>
<time>2009-06-03T10:59:38.000Z</time>
</trkpt>
<trkpt lat="28.118476" lon="-17.228715">
<ele>672.098900</ele>
<time>2009-06-03T10:59:53.000Z</time>
</trkpt>
<trkpt lat="28.118646" lon="-17.228681">
<ele>671.137700</ele>
<time>2009-06-03T11:00:14.000Z</time>
</trkpt>
<trkpt lat="28.118687" lon="-17.228642">
<ele>670.176300</ele>
<time>2009-06-03T11:00:32.000Z</time>
</trkpt>
<trkpt lat="28.118634" lon="-17.228623">
<ele>670.657000</ele>
<time>2009-06-03T11:01:20.000Z</time>
</trkpt>
<trkpt lat="28.118720" lon="-17.228597">
<ele>668.253700</ele>
<time>2009-06-03T11:02:35.000Z</time>
</trkpt>
<trkpt lat="28.118764" lon="-17.228495">
<ele>666.811500</ele>
<time>2009-06-03T11:03:13.000Z</time>
</trkpt>
<trkpt lat="28.118766" lon="-17.228478">
<ele>665.850300</ele>
<time>2009-06-03T11:03:53.000Z</time>
</trkpt>
<trkpt lat="28.118797" lon="-17.228518">
<ele>665.369600</ele>
<time>2009-06-03T11:05:04.000Z</time>
</trkpt>
<trkpt lat="28.118756" lon="-17.228521">
<ele>665.369600</ele>
<time>2009-06-03T11:05:30.000Z</time>
</trkpt>
<trkpt lat="28.118747" lon="-17.228520">
<ele>665.850300</ele>
<time>2009-06-03T11:06:15.000Z</time>
</trkpt>
<trkpt lat="28.118714" lon="-17.228556">
<ele>665.369600</ele>
<time>2009-06-03T11:06:52.000Z</time>
</trkpt>
<trkpt lat="28.118722" lon="-17.228515">
<ele>666.811500</ele>
<time>2009-06-03T11:09:57.000Z</time>
</trkpt>
<trkpt lat="28.118809" lon="-17.228599">
<ele>666.811500</ele>
<time>2009-06-03T11:10:27.000Z</time>
</trkpt>
<trkpt lat="28.118895" lon="-17.228642">
<ele>664.888900</ele>
<time>2009-06-03T11:10:56.000Z</time>
</trkpt>
<trkpt lat="28.119056" lon="-17.228482">
<ele>664.888900</ele>
<time>2009-06-03T11:11:19.000Z</time>
</trkpt>
<trkpt lat="28.119176" lon="-17.228343">
<ele>664.408200</ele>
<time>2009-06-03T11:12:36.000Z</time>
</trkpt>
<trkpt lat="28.119310" lon="-17.228176">
<ele>663.447000</ele>
<time>2009-06-03T11:12:55.000Z</time>
</trkpt>
<trkpt lat="28.119555" lon="-17.227997">
<ele>661.043700</ele>
<time>2009-06-03T11:13:20.000Z</time>
</trkpt>
<trkpt lat="28.119725" lon="-17.227743">
<ele>660.563000</ele>
<time>2009-06-03T11:13:42.000Z</time>
</trkpt>
<trkpt lat="28.119904" lon="-17.227523">
<ele>662.005100</ele>
<time>2009-06-03T11:14:03.000Z</time>
</trkpt>
<trkpt lat="28.120049" lon="-17.227286">
<ele>659.601800</ele>
<time>2009-06-03T11:14:25.000Z</time>
</trkpt>
<trkpt lat="28.120225" lon="-17.227127">
<ele>656.717800</ele>
<time>2009-06-03T11:14:48.000Z</time>
</trkpt>
<trkpt lat="28.120258" lon="-17.227000">
<ele>653.353300</ele>
<time>2009-06-03T11:15:14.000Z</time>
</trkpt>
<trkpt lat="28.120327" lon="-17.226790">
<ele>649.988500</ele>
<time>2009-06-03T11:15:36.000Z</time>
</trkpt>
<trkpt lat="28.120491" lon="-17.226649">
<ele>646.624000</ele>
<time>2009-06-03T11:15:57.000Z</time>
</trkpt>
<trkpt lat="28.120629" lon="-17.226488">
<ele>644.701200</ele>
<time>2009-06-03T11:16:24.000Z</time>
</trkpt>
<trkpt lat="28.120651" lon="-17.226426">
<ele>644.220700</ele>
<time>2009-06-03T11:18:27.000Z</time>
</trkpt>
<trkpt lat="28.120838" lon="-17.226279">
<ele>641.336700</ele>
<time>2009-06-03T11:18:50.000Z</time>
</trkpt>
<trkpt lat="28.121085" lon="-17.226237">
<ele>639.414100</ele>
<time>2009-06-03T11:19:14.000Z</time>
</trkpt>
<trkpt lat="28.121166" lon="-17.226055">
<ele>638.452900</ele>
<time>2009-06-03T11:19:34.000Z</time>
</trkpt>
<trkpt lat="28.121138" lon="-17.226046">
<ele>638.452900</ele>
<time>2009-06-03T11:19:52.000Z</time>
</trkpt>
<trkpt lat="28.121111" lon="-17.226092">
<ele>637.972200</ele>
<time>2009-06-03T11:20:49.000Z</time>
</trkpt>
<trkpt lat="28.121388" lon="-17.225931">
<ele>634.607400</ele>
<time>2009-06-03T11:21:23.000Z</time>
</trkpt>
<trkpt lat="28.121607" lon="-17.225744">
<ele>631.242900</ele>
<time>2009-06-03T11:21:41.000Z</time>
</trkpt>
<trkpt lat="28.121772" lon="-17.225564">
<ele>628.358900</ele>
<time>2009-06-03T11:22:11.000Z</time>
</trkpt>
<trkpt lat="28.122194" lon="-17.225428">
<ele>625.474900</ele>
<time>2009-06-03T11:22:47.000Z</time>
</trkpt>
<trkpt lat="28.122468" lon="-17.225495">
<ele>622.110400</ele>
<time>2009-06-03T11:23:15.000Z</time>
</trkpt>
<trkpt lat="28.122699" lon="-17.225656">
<ele>619.226300</ele>
<time>2009-06-03T11:23:51.000Z</time>
</trkpt>
<trkpt lat="28.122761" lon="-17.225985">
<ele>617.303700</ele>
<time>2009-06-03T11:24:38.000Z</time>
</trkpt>
<trkpt lat="28.123018" lon="-17.225715">
<ele>615.861800</ele>
<time>2009-06-03T11:25:12.000Z</time>
</trkpt>
<trkpt lat="28.123076" lon="-17.225645">
<ele>614.900400</ele>
<time>2009-06-03T11:25:47.000Z</time>
</trkpt>
<trkpt lat="28.123554" lon="-17.225183">
<ele>611.535900</ele>
<time>2009-06-03T11:26:51.000Z</time>
</trkpt>
<trkpt lat="28.123756" lon="-17.225046">
<ele>608.171400</ele>
<time>2009-06-03T11:27:19.000Z</time>
</trkpt>
<trkpt lat="28.123585" lon="-17.224796">
<ele>606.248500</ele>
<time>2009-06-03T11:27:44.000Z</time>
</trkpt>
<trkpt lat="28.123646" lon="-17.224595">
<ele>603.364500</ele>
<time>2009-06-03T11:28:08.000Z</time>
</trkpt>
<trkpt lat="28.123658" lon="-17.224238">
<ele>600.480700</ele>
<time>2009-06-03T11:28:34.000Z</time>
</trkpt>
<trkpt lat="28.123613" lon="-17.224017">
<ele>599.038600</ele>
<time>2009-06-03T11:28:55.000Z</time>
</trkpt>
<trkpt lat="28.123538" lon="-17.223776">
<ele>596.635500</ele>
<time>2009-06-03T11:29:18.000Z</time>
</trkpt>
<trkpt lat="28.123458" lon="-17.223515">
<ele>594.232200</ele>
<time>2009-06-03T11:29:46.000Z</time>
</trkpt>
<trkpt lat="28.123552" lon="-17.223343">
<ele>591.828900</ele>
<time>2009-06-03T11:30:11.000Z</time>
</trkpt>
<trkpt lat="28.123612" lon="-17.223187">
<ele>590.387000</ele>
<time>2009-06-03T11:30:30.000Z</time>
</trkpt>
<trkpt lat="28.123669" lon="-17.222957">
<ele>589.425500</ele>
<time>2009-06-03T11:30:46.000Z</time>
</trkpt>
<trkpt lat="28.123803" lon="-17.222927">
<ele>587.502700</ele>
<time>2009-06-03T11:31:04.000Z</time>
</trkpt>
<trkpt lat="28.123904" lon="-17.222899">
<ele>586.060800</ele>
<time>2009-06-03T11:31:20.000Z</time>
</trkpt>
<trkpt lat="28.124011" lon="-17.223026">
<ele>584.618900</ele>
<time>2009-06-03T11:31:35.000Z</time>
</trkpt>
<trkpt lat="28.124088" lon="-17.223195">
<ele>583.176800</ele>
<time>2009-06-03T11:31:52.000Z</time>
</trkpt>
<trkpt lat="28.124382" lon="-17.223286">
<ele>581.734900</ele>
<time>2009-06-03T11:32:57.000Z</time>
</trkpt>
<trkpt lat="28.124518" lon="-17.223298">
<ele>582.215600</ele>
<time>2009-06-03T11:33:41.000Z</time>
</trkpt>
<trkpt lat="28.124630" lon="-17.223259">
<ele>582.696300</ele>
<time>2009-06-03T11:34:07.000Z</time>
</trkpt>
<trkpt lat="28.124709" lon="-17.223272">
<ele>579.331500</ele>
<time>2009-06-03T11:34:39.000Z</time>
</trkpt>
<trkpt lat="28.124790" lon="-17.223225">
<ele>575.967000</ele>
<time>2009-06-03T11:34:59.000Z</time>
</trkpt>
<trkpt lat="28.124888" lon="-17.223307">
<ele>574.525100</ele>
<time>2009-06-03T11:35:38.000Z</time>
</trkpt>
<trkpt lat="28.124817" lon="-17.223539">
<ele>575.005900</ele>
<time>2009-06-03T11:36:17.000Z</time>
</trkpt>
<trkpt lat="28.124818" lon="-17.223541">
<ele>575.005900</ele>
<time>2009-06-03T11:36:59.000Z</time>
</trkpt>
<trkpt lat="28.124813" lon="-17.223604">
<ele>574.525100</ele>
<time>2009-06-03T11:37:16.000Z</time>
</trkpt>
<trkpt lat="28.124764" lon="-17.223359">
<ele>574.525100</ele>
<time>2009-06-03T11:38:20.000Z</time>
</trkpt>
<trkpt lat="28.124663" lon="-17.223458">
<ele>574.525100</ele>
<time>2009-06-03T11:38:47.000Z</time>
</trkpt>
<trkpt lat="28.124769" lon="-17.223353">
<ele>574.525100</ele>
<time>2009-06-03T11:39:31.000Z</time>
</trkpt>
<trkpt lat="28.124878" lon="-17.223261">
<ele>574.525100</ele>
<time>2009-06-03T11:39:46.000Z</time>
</trkpt>
<trkpt lat="28.124909" lon="-17.223129">
<ele>574.525100</ele>
<time>2009-06-03T11:40:01.000Z</time>
</trkpt>
<trkpt lat="28.124968" lon="-17.223120">
<ele>575.005900</ele>
<time>2009-06-03T11:40:26.000Z</time>
</trkpt>
<trkpt lat="28.124959" lon="-17.223132">
<ele>574.525100</ele>
<time>2009-06-03T11:41:10.000Z</time>
</trkpt>
<trkpt lat="28.125137" lon="-17.222832">
<ele>575.967000</ele>
<time>2009-06-03T11:41:49.000Z</time>
</trkpt>
<trkpt lat="28.125187" lon="-17.222672">
<ele>576.928500</ele>
<time>2009-06-03T11:42:06.000Z</time>
</trkpt>
<trkpt lat="28.125242" lon="-17.222531">
<ele>577.409200</ele>
<time>2009-06-03T11:42:21.000Z</time>
</trkpt>
<trkpt lat="28.125393" lon="-17.222273">
<ele>576.928500</ele>
<time>2009-06-03T11:42:52.000Z</time>
</trkpt>
<trkpt lat="28.125545" lon="-17.222008">
<ele>575.967000</ele>
<time>2009-06-03T11:43:12.000Z</time>
</trkpt>
<trkpt lat="28.125699" lon="-17.221725">
<ele>575.005900</ele>
<time>2009-06-03T11:43:41.000Z</time>
</trkpt>
<trkpt lat="28.125853" lon="-17.221545">
<ele>574.044400</ele>
<time>2009-06-03T11:44:03.000Z</time>
</trkpt>
<trkpt lat="28.126007" lon="-17.221370">
<ele>575.005900</ele>
<time>2009-06-03T11:44:21.000Z</time>
</trkpt>
<trkpt lat="28.126080" lon="-17.221148">
<ele>574.044400</ele>
<time>2009-06-03T11:44:42.000Z</time>
</trkpt>
<trkpt lat="28.126064" lon="-17.221039">
<ele>573.564000</ele>
<time>2009-06-03T11:45:02.000Z</time>
</trkpt>
<trkpt lat="28.126097" lon="-17.220954">
<ele>570.199000</ele>
<time>2009-06-03T11:45:19.000Z</time>
</trkpt>
<trkpt lat="28.126179" lon="-17.220849">
<ele>567.315200</ele>
<time>2009-06-03T11:45:43.000Z</time>
</trkpt>
<trkpt lat="28.126160" lon="-17.220795">
<ele>563.950400</ele>
<time>2009-06-03T11:46:09.000Z</time>
</trkpt>
<trkpt lat="28.126133" lon="-17.220674">
<ele>561.066700</ele>
<time>2009-06-03T11:46:35.000Z</time>
</trkpt>
<trkpt lat="28.126231" lon="-17.220753">
<ele>558.182900</ele>
<time>2009-06-03T11:46:53.000Z</time>
</trkpt>
<trkpt lat="28.126212" lon="-17.220719">
<ele>558.182900</ele>
<time>2009-06-03T11:47:31.000Z</time>
</trkpt>
<trkpt lat="28.126230" lon="-17.220759">
<ele>561.066700</ele>
<time>2009-06-03T11:47:49.000Z</time>
</trkpt>
<trkpt lat="28.126400" lon="-17.220724">
<ele>562.028100</ele>
<time>2009-06-03T11:48:31.000Z</time>
</trkpt>
<trkpt lat="28.126547" lon="-17.220872">
<ele>561.066700</ele>
<time>2009-06-03T11:49:38.000Z</time>
</trkpt>
<trkpt lat="28.126577" lon="-17.220864">
<ele>560.105200</ele>
<time>2009-06-03T11:52:20.000Z</time>
</trkpt>
<trkpt lat="28.126579" lon="-17.220863">
<ele>563.470000</ele>
<time>2009-06-03T11:52:21.000Z</time>
</trkpt>
<trkpt lat="28.126581" lon="-17.220862">
<ele>561.547400</ele>
<time>2009-06-03T11:52:22.000Z</time>
</trkpt>
<trkpt lat="28.126870" lon="-17.220888">
<ele>561.547400</ele>
<time>2009-06-03T11:53:06.000Z</time>
</trkpt>
<trkpt lat="28.127021" lon="-17.220933">
<ele>562.028100</ele>
<time>2009-06-03T11:54:39.000Z</time>
</trkpt>
<trkpt lat="28.127014" lon="-17.220952">
<ele>562.028100</ele>
<time>2009-06-03T11:56:39.000Z</time>
</trkpt>
<trkpt lat="28.126922" lon="-17.220883">
<ele>562.508500</ele>
<time>2009-06-03T12:02:26.000Z</time>
</trkpt>
<trkpt lat="28.126825" lon="-17.220783">
<ele>562.989300</ele>
<time>2009-06-03T12:06:59.000Z</time>
</trkpt>
<trkpt lat="28.126908" lon="-17.220905">
<ele>562.989300</ele>
<time>2009-06-03T12:09:37.000Z</time>
</trkpt>
<trkpt lat="28.126898" lon="-17.220835">
<ele>564.431200</ele>
<time>2009-06-03T12:10:44.000Z</time>
</trkpt>
<trkpt lat="28.126900" lon="-17.220833">
<ele>564.431200</ele>
<time>2009-06-03T12:10:46.000Z</time>
</trkpt>
<trkpt lat="28.127120" lon="-17.220698">
<ele>562.508500</ele>
<time>2009-06-03T12:11:53.000Z</time>
</trkpt>
<trkpt lat="28.127230" lon="-17.220632">
<ele>559.624800</ele>
<time>2009-06-03T12:12:09.000Z</time>
</trkpt>
<trkpt lat="28.127400" lon="-17.220185">
<ele>557.702100</ele>
<time>2009-06-03T12:12:45.000Z</time>
</trkpt>
<trkpt lat="28.127649" lon="-17.219928">
<ele>555.779300</ele>
<time>2009-06-03T12:13:26.000Z</time>
</trkpt>
<trkpt lat="28.127921" lon="-17.219787">
<ele>552.414600</ele>
<time>2009-06-03T12:13:59.000Z</time>
</trkpt>
<trkpt lat="28.128143" lon="-17.219729">
<ele>552.895300</ele>
<time>2009-06-03T12:14:32.000Z</time>
</trkpt>
<trkpt lat="28.128474" lon="-17.219806">
<ele>550.492200</ele>
<time>2009-06-03T12:15:07.000Z</time>
</trkpt>
<trkpt lat="28.128628" lon="-17.219808">
<ele>547.127400</ele>
<time>2009-06-03T12:15:24.000Z</time>
</trkpt>
<trkpt lat="28.128728" lon="-17.219852">
<ele>544.243700</ele>
<time>2009-06-03T12:15:40.000Z</time>
</trkpt>
<trkpt lat="28.128868" lon="-17.219943">
<ele>540.878900</ele>
<time>2009-06-03T12:15:58.000Z</time>
</trkpt>
<trkpt lat="28.129110" lon="-17.220014">
<ele>537.995000</ele>
<time>2009-06-03T12:16:27.000Z</time>
</trkpt>
<trkpt lat="28.129485" lon="-17.220015">
<ele>537.033700</ele>
<time>2009-06-03T12:17:00.000Z</time>
</trkpt>
<trkpt lat="28.129811" lon="-17.219997">
<ele>537.995000</ele>
<time>2009-06-03T12:17:33.000Z</time>
</trkpt>
<trkpt lat="28.129984" lon="-17.219927">
<ele>534.630400</ele>
<time>2009-06-03T12:17:54.000Z</time>
</trkpt>
<trkpt lat="28.130163" lon="-17.219575">
<ele>532.227100</ele>
<time>2009-06-03T12:18:22.000Z</time>
</trkpt>
<trkpt lat="28.130132" lon="-17.219113">
<ele>529.823700</ele>
<time>2009-06-03T12:18:58.000Z</time>
</trkpt>
<trkpt lat="28.130093" lon="-17.218923">
<ele>528.381800</ele>
<time>2009-06-03T12:19:34.000Z</time>
</trkpt>
<trkpt lat="28.130179" lon="-17.218443">
<ele>530.304400</ele>
<time>2009-06-03T12:19:55.000Z</time>
</trkpt>
<trkpt lat="28.130354" lon="-17.218330">
<ele>533.188400</ele>
<time>2009-06-03T12:20:22.000Z</time>
</trkpt>
<trkpt lat="28.130377" lon="-17.218293">
<ele>532.227100</ele>
<time>2009-06-03T12:20:56.000Z</time>
</trkpt>
<trkpt lat="28.130692" lon="-17.218137">
<ele>532.227100</ele>
<time>2009-06-03T12:21:27.000Z</time>
</trkpt>
<trkpt lat="28.130788" lon="-17.217917">
<ele>534.149700</ele>
<time>2009-06-03T12:21:50.000Z</time>
</trkpt>
<trkpt lat="28.130925" lon="-17.217806">
<ele>531.746300</ele>
<time>2009-06-03T12:22:15.000Z</time>
</trkpt>
<trkpt lat="28.130924" lon="-17.217593">
<ele>533.188400</ele>
<time>2009-06-03T12:22:41.000Z</time>
</trkpt>
<trkpt lat="28.131011" lon="-17.217340">
<ele>534.149700</ele>
<time>2009-06-03T12:23:10.000Z</time>
</trkpt>
<trkpt lat="28.131211" lon="-17.217398">
<ele>532.707800</ele>
<time>2009-06-03T12:23:37.000Z</time>
</trkpt>
<trkpt lat="28.131334" lon="-17.217361">
<ele>529.343100</ele>
<time>2009-06-03T12:23:55.000Z</time>
</trkpt>
<trkpt lat="28.131483" lon="-17.217191">
<ele>526.939800</ele>
<time>2009-06-03T12:24:26.000Z</time>
</trkpt>
<trkpt lat="28.131591" lon="-17.217065">
<ele>524.055800</ele>
<time>2009-06-03T12:24:44.000Z</time>
</trkpt>
<trkpt lat="28.131917" lon="-17.217071">
<ele>521.172000</ele>
<time>2009-06-03T12:25:03.000Z</time>
</trkpt>
<trkpt lat="28.131991" lon="-17.217064">
<ele>518.287800</ele>
<time>2009-06-03T12:25:20.000Z</time>
</trkpt>
<trkpt lat="28.132048" lon="-17.217042">
<ele>514.923300</ele>
<time>2009-06-03T12:25:35.000Z</time>
</trkpt>
<trkpt lat="28.132165" lon="-17.216917">
<ele>512.039400</ele>
<time>2009-06-03T12:25:55.000Z</time>
</trkpt>
<trkpt lat="28.132323" lon="-17.216951">
<ele>513.962000</ele>
<time>2009-06-03T12:26:18.000Z</time>
</trkpt>
<trkpt lat="28.132460" lon="-17.216835">
<ele>514.923300</ele>
<time>2009-06-03T12:26:35.000Z</time>
</trkpt>
<trkpt lat="28.132583" lon="-17.216725">
<ele>515.404100</ele>
<time>2009-06-03T12:26:55.000Z</time>
</trkpt>
<trkpt lat="28.132542" lon="-17.216493">
<ele>513.962000</ele>
<time>2009-06-03T12:27:15.000Z</time>
</trkpt>
<trkpt lat="28.132634" lon="-17.216374">
<ele>514.442600</ele>
<time>2009-06-03T12:27:25.000Z</time>
</trkpt>
<trkpt lat="28.132739" lon="-17.216309">
<ele>516.365200</ele>
<time>2009-06-03T12:27:40.000Z</time>
</trkpt>
<trkpt lat="28.132858" lon="-17.216215">
<ele>518.768600</ele>
<time>2009-06-03T12:27:59.000Z</time>
</trkpt>
<trkpt lat="28.132996" lon="-17.216099">
<ele>519.729900</ele>
<time>2009-06-03T12:28:22.000Z</time>
</trkpt>
<trkpt lat="28.133171" lon="-17.216015">
<ele>518.287800</ele>
<time>2009-06-03T12:28:39.000Z</time>
</trkpt>
<trkpt lat="28.133317" lon="-17.215955">
<ele>515.404100</ele>
<time>2009-06-03T12:28:56.000Z</time>
</trkpt>
<trkpt lat="28.133396" lon="-17.215998">
<ele>515.404100</ele>
<time>2009-06-03T12:29:03.000Z</time>
</trkpt>
<trkpt lat="28.133517" lon="-17.215965">
<ele>513.962000</ele>
<time>2009-06-03T12:29:18.000Z</time>
</trkpt>
<trkpt lat="28.133720" lon="-17.215923">
<ele>512.039400</ele>
<time>2009-06-03T12:29:35.000Z</time>
</trkpt>
<trkpt lat="28.133834" lon="-17.215900">
<ele>509.636100</ele>
<time>2009-06-03T12:29:52.000Z</time>
</trkpt>
<trkpt lat="28.133951" lon="-17.215888">
<ele>506.271500</ele>
<time>2009-06-03T12:30:06.000Z</time>
</trkpt>
<trkpt lat="28.134026" lon="-17.215869">
<ele>503.387500</ele>
<time>2009-06-03T12:30:22.000Z</time>
</trkpt>
<trkpt lat="28.134107" lon="-17.215843">
<ele>500.503500</ele>
<time>2009-06-03T12:30:38.000Z</time>
</trkpt>
<trkpt lat="28.134325" lon="-17.215798">
<ele>500.022900</ele>
<time>2009-06-03T12:31:01.000Z</time>
</trkpt>
<trkpt lat="28.134478" lon="-17.215735">
<ele>500.022900</ele>
<time>2009-06-03T12:31:14.000Z</time>
</trkpt>
<trkpt lat="28.134530" lon="-17.215710">
<ele>500.022900</ele>
<time>2009-06-03T12:31:18.000Z</time>
</trkpt>
<trkpt lat="28.134559" lon="-17.215669">
<ele>500.022900</ele>
<time>2009-06-03T12:31:22.000Z</time>
</trkpt>
<trkpt lat="28.134581" lon="-17.215589">
<ele>499.542200</ele>
<time>2009-06-03T12:31:29.000Z</time>
</trkpt>
<trkpt lat="28.134626" lon="-17.215409">
<ele>499.061500</ele>
<time>2009-06-03T12:31:43.000Z</time>
</trkpt>
<trkpt lat="28.134640" lon="-17.215381">
<ele>499.542200</ele>
<time>2009-06-03T12:31:45.000Z</time>
</trkpt>
<trkpt lat="28.134660" lon="-17.215247">
<ele>499.061500</ele>
<time>2009-06-03T12:31:56.000Z</time>
</trkpt>
<trkpt lat="28.134670" lon="-17.215217">
<ele>499.061500</ele>
<time>2009-06-03T12:31:59.000Z</time>
</trkpt>
<trkpt lat="28.134672" lon="-17.215132">
<ele>498.100300</ele>
<time>2009-06-03T12:32:06.000Z</time>
</trkpt>
<trkpt lat="28.134702" lon="-17.215011">
<ele>498.100300</ele>
<time>2009-06-03T12:32:15.000Z</time>
</trkpt>
<trkpt lat="28.134694" lon="-17.214962">
<ele>497.619600</ele>
<time>2009-06-03T12:32:19.000Z</time>
</trkpt>
<trkpt lat="28.134666" lon="-17.214809">
<ele>497.138900</ele>
<time>2009-06-03T12:32:32.000Z</time>
</trkpt>
<trkpt lat="28.134669" lon="-17.214792">
<ele>497.619600</ele>
<time>2009-06-03T12:33:00.000Z</time>
</trkpt>
<trkpt lat="28.134652" lon="-17.214782">
<ele>496.658300</ele>
<time>2009-06-03T12:33:25.000Z</time>
</trkpt>
<trkpt lat="28.134699" lon="-17.214751">
<ele>497.619600</ele>
<time>2009-06-03T12:33:58.000Z</time>
</trkpt>
<trkpt lat="28.115809" lon="-17.243211">
<ele>1038.842000</ele>
<time>2009-06-03T12:54:50.000Z</time>
</trkpt>
<trkpt lat="28.115809" lon="-17.243211">
<ele>1038.842000</ele>
<time>2009-06-03T12:54:51.000Z</time>
</trkpt>
<trkpt lat="28.115793" lon="-17.243202">
<ele>1038.842000</ele>
<time>2009-06-03T12:55:21.000Z</time>
</trkpt>
<trkpt lat="28.115592" lon="-17.243138">
<ele>1038.842000</ele>
<time>2009-06-03T12:55:35.000Z</time>
</trkpt>
<trkpt lat="28.115461" lon="-17.243134">
<ele>1039.323000</ele>
<time>2009-06-03T12:55:47.000Z</time>
</trkpt>
<trkpt lat="28.115488" lon="-17.243234">
<ele>1041.245000</ele>
<time>2009-06-03T12:56:05.000Z</time>
</trkpt>
<trkpt lat="28.115696" lon="-17.243403">
<ele>1044.129000</ele>
<time>2009-06-03T12:56:27.000Z</time>
</trkpt>
<trkpt lat="28.115716" lon="-17.243532">
<ele>1045.090000</ele>
<time>2009-06-03T12:56:37.000Z</time>
</trkpt>
<trkpt lat="28.115689" lon="-17.243591">
<ele>1045.571000</ele>
<time>2009-06-03T12:56:43.000Z</time>
</trkpt>
<trkpt lat="28.115693" lon="-17.243746">
<ele>1046.052000</ele>
<time>2009-06-03T12:56:58.000Z</time>
</trkpt>
<trkpt lat="28.115742" lon="-17.243809">
<ele>1046.532000</ele>
<time>2009-06-03T12:57:04.000Z</time>
</trkpt>
<trkpt lat="28.115808" lon="-17.244035">
<ele>1048.455000</ele>
<time>2009-06-03T12:57:23.000Z</time>
</trkpt>
<trkpt lat="28.115822" lon="-17.244214">
<ele>1050.378000</ele>
<time>2009-06-03T12:57:41.000Z</time>
</trkpt>
<trkpt lat="28.115743" lon="-17.244259">
<ele>1052.300000</ele>
<time>2009-06-03T12:57:57.000Z</time>
</trkpt>
<trkpt lat="28.115586" lon="-17.244137">
<ele>1054.223000</ele>
<time>2009-06-03T12:58:20.000Z</time>
</trkpt>
<trkpt lat="28.115479" lon="-17.243981">
<ele>1056.626000</ele>
<time>2009-06-03T12:58:35.000Z</time>
</trkpt>
<trkpt lat="28.115405" lon="-17.243862">
<ele>1057.588000</ele>
<time>2009-06-03T12:58:50.000Z</time>
</trkpt>
<trkpt lat="28.115222" lon="-17.243707">
<ele>1059.991000</ele>
<time>2009-06-03T12:59:11.000Z</time>
</trkpt>
<trkpt lat="28.115103" lon="-17.243688">
<ele>1061.914000</ele>
<time>2009-06-03T12:59:28.000Z</time>
</trkpt>
<trkpt lat="28.114971" lon="-17.243693">
<ele>1062.875000</ele>
<time>2009-06-03T12:59:50.000Z</time>
</trkpt>
<trkpt lat="28.114809" lon="-17.243744">
<ele>1064.797000</ele>
<time>2009-06-03T13:00:08.000Z</time>
</trkpt>
<trkpt lat="28.114654" lon="-17.243770">
<ele>1066.720000</ele>
<time>2009-06-03T13:00:26.000Z</time>
</trkpt>
<trkpt lat="28.114510" lon="-17.243823">
<ele>1068.643000</ele>
<time>2009-06-03T13:00:42.000Z</time>
</trkpt>
<trkpt lat="28.114427" lon="-17.243910">
<ele>1069.604000</ele>
<time>2009-06-03T13:00:51.000Z</time>
</trkpt>
<trkpt lat="28.114409" lon="-17.243921">
<ele>1069.604000</ele>
<time>2009-06-03T13:00:53.000Z</time>
</trkpt>
<trkpt lat="28.114342" lon="-17.243958">
<ele>1070.085000</ele>
<time>2009-06-03T13:01:02.000Z</time>
</trkpt>
<trkpt lat="28.114325" lon="-17.243978">
<ele>1070.565000</ele>
<time>2009-06-03T13:01:04.000Z</time>
</trkpt>
<trkpt lat="28.114251" lon="-17.244061">
<ele>1071.046000</ele>
<time>2009-06-03T13:01:15.000Z</time>
</trkpt>
<trkpt lat="28.114194" lon="-17.244104">
<ele>1071.527000</ele>
<time>2009-06-03T13:01:33.000Z</time>
</trkpt>
<trkpt lat="28.114094" lon="-17.244042">
<ele>1072.488000</ele>
<time>2009-06-03T13:04:12.000Z</time>
</trkpt>
<trkpt lat="28.113941" lon="-17.243928">
<ele>1074.411000</ele>
<time>2009-06-03T13:04:34.000Z</time>
</trkpt>
<trkpt lat="28.113807" lon="-17.243846">
<ele>1075.853000</ele>
<time>2009-06-03T13:04:53.000Z</time>
</trkpt>
<trkpt lat="28.113753" lon="-17.243815">
<ele>1076.814000</ele>
<time>2009-06-03T13:05:16.000Z</time>
</trkpt>
<trkpt lat="28.113710" lon="-17.243728">
<ele>1078.737000</ele>
<time>2009-06-03T13:06:13.000Z</time>
</trkpt>
<trkpt lat="28.113604" lon="-17.243683">
<ele>1080.178000</ele>
<time>2009-06-03T13:06:31.000Z</time>
</trkpt>
<trkpt lat="28.113451" lon="-17.243632">
<ele>1082.101000</ele>
<time>2009-06-03T13:06:52.000Z</time>
</trkpt>
<trkpt lat="28.113339" lon="-17.243660">
<ele>1085.466000</ele>
<time>2009-06-03T13:07:13.000Z</time>
</trkpt>
<trkpt lat="28.113231" lon="-17.243688">
<ele>1088.350000</ele>
<time>2009-06-03T13:07:38.000Z</time>
</trkpt>
<trkpt lat="28.113140" lon="-17.243708">
<ele>1090.272000</ele>
<time>2009-06-03T13:07:56.000Z</time>
</trkpt>
<trkpt lat="28.113057" lon="-17.243717">
<ele>1090.753000</ele>
<time>2009-06-03T13:08:16.000Z</time>
</trkpt>
<trkpt lat="28.112955" lon="-17.243708">
<ele>1094.118000</ele>
<time>2009-06-03T13:09:19.000Z</time>
</trkpt>
<trkpt lat="28.112864" lon="-17.243709">
<ele>1096.521000</ele>
<time>2009-06-03T13:09:37.000Z</time>
</trkpt>
<trkpt lat="28.112682" lon="-17.243692">
<ele>1098.443000</ele>
<time>2009-06-03T13:09:56.000Z</time>
</trkpt>
<trkpt lat="28.112571" lon="-17.243656">
<ele>1100.366000</ele>
<time>2009-06-03T13:10:13.000Z</time>
</trkpt>
<trkpt lat="28.112424" lon="-17.243640">
<ele>1103.731000</ele>
<time>2009-06-03T13:10:32.000Z</time>
</trkpt>
<trkpt lat="28.112369" lon="-17.243646">
<ele>1106.615000</ele>
<time>2009-06-03T13:10:53.000Z</time>
</trkpt>
<trkpt lat="28.112285" lon="-17.243683">
<ele>1109.018000</ele>
<time>2009-06-03T13:11:14.000Z</time>
</trkpt>
<trkpt lat="28.112178" lon="-17.243643">
<ele>1111.902000</ele>
<time>2009-06-03T13:11:34.000Z</time>
</trkpt>
<trkpt lat="28.112141" lon="-17.243557">
<ele>1113.824000</ele>
<time>2009-06-03T13:11:50.000Z</time>
</trkpt>
<trkpt lat="28.112173" lon="-17.243534">
<ele>1114.786000</ele>
<time>2009-06-03T13:12:12.000Z</time>
</trkpt>
<trkpt lat="28.112107" lon="-17.243529">
<ele>1117.189000</ele>
<time>2009-06-03T13:12:30.000Z</time>
</trkpt>
<trkpt lat="28.112017" lon="-17.243507">
<ele>1119.593000</ele>
<time>2009-06-03T13:12:46.000Z</time>
</trkpt>
<trkpt lat="28.111927" lon="-17.243488">
<ele>1121.515000</ele>
<time>2009-06-03T13:13:08.000Z</time>
</trkpt>
<trkpt lat="28.111921" lon="-17.243488">
<ele>1121.515000</ele>
<time>2009-06-03T13:13:44.000Z</time>
</trkpt>
<trkpt lat="28.111819" lon="-17.243514">
<ele>1124.399000</ele>
<time>2009-06-03T13:14:27.000Z</time>
</trkpt>
<trkpt lat="28.111755" lon="-17.243551">
<ele>1126.322000</ele>
<time>2009-06-03T13:14:45.000Z</time>
</trkpt>
<trkpt lat="28.111668" lon="-17.243619">
<ele>1128.244000</ele>
<time>2009-06-03T13:15:01.000Z</time>
</trkpt>
<trkpt lat="28.111604" lon="-17.243659">
<ele>1130.167000</ele>
<time>2009-06-03T13:15:15.000Z</time>
</trkpt>
<trkpt lat="28.111540" lon="-17.243700">
<ele>1132.090000</ele>
<time>2009-06-03T13:15:33.000Z</time>
</trkpt>
<trkpt lat="28.111529" lon="-17.243676">
<ele>1132.090000</ele>
<time>2009-06-03T13:15:54.000Z</time>
</trkpt>
<trkpt lat="28.111520" lon="-17.243662">
<ele>1133.532000</ele>
<time>2009-06-03T13:16:25.000Z</time>
</trkpt>
<trkpt lat="28.111443" lon="-17.243636">
<ele>1135.454000</ele>
<time>2009-06-03T13:16:55.000Z</time>
</trkpt>
<trkpt lat="28.111422" lon="-17.243667">
<ele>1135.935000</ele>
<time>2009-06-03T13:17:23.000Z</time>
</trkpt>
<trkpt lat="28.111395" lon="-17.243754">
<ele>1135.935000</ele>
<time>2009-06-03T13:17:36.000Z</time>
</trkpt>
<trkpt lat="28.111384" lon="-17.243892">
<ele>1137.377000</ele>
<time>2009-06-03T13:17:50.000Z</time>
</trkpt>
<trkpt lat="28.111381" lon="-17.244007">
<ele>1139.300000</ele>
<time>2009-06-03T13:18:05.000Z</time>
</trkpt>
<trkpt lat="28.111384" lon="-17.244101">
<ele>1140.741000</ele>
<time>2009-06-03T13:18:18.000Z</time>
</trkpt>
<trkpt lat="28.111359" lon="-17.244157">
<ele>1141.703000</ele>
<time>2009-06-03T13:18:28.000Z</time>
</trkpt>
<trkpt lat="28.111271" lon="-17.244328">
<ele>1142.184000</ele>
<time>2009-06-03T13:18:43.000Z</time>
</trkpt>
<trkpt lat="28.111203" lon="-17.244416">
<ele>1142.664000</ele>
<time>2009-06-03T13:18:56.000Z</time>
</trkpt>
<trkpt lat="28.111109" lon="-17.244507">
<ele>1144.106000</ele>
<time>2009-06-03T13:19:11.000Z</time>
</trkpt>
<trkpt lat="28.111060" lon="-17.244611">
<ele>1145.067000</ele>
<time>2009-06-03T13:19:27.000Z</time>
</trkpt>
<trkpt lat="28.111079" lon="-17.244705">
<ele>1145.067000</ele>
<time>2009-06-03T13:19:40.000Z</time>
</trkpt>
<trkpt lat="28.111116" lon="-17.244830">
<ele>1144.106000</ele>
<time>2009-06-03T13:19:55.000Z</time>
</trkpt>
<trkpt lat="28.111055" lon="-17.244959">
<ele>1144.106000</ele>
<time>2009-06-03T13:20:13.000Z</time>
</trkpt>
<trkpt lat="28.111049" lon="-17.244990">
<ele>1143.625000</ele>
<time>2009-06-03T13:20:16.000Z</time>
</trkpt>
<trkpt lat="28.111012" lon="-17.245145">
<ele>1145.067000</ele>
<time>2009-06-03T13:20:31.000Z</time>
</trkpt>
<trkpt lat="28.111015" lon="-17.245274">
<ele>1145.548000</ele>
<time>2009-06-03T13:20:45.000Z</time>
</trkpt>
<trkpt lat="28.110975" lon="-17.245401">
<ele>1144.587000</ele>
<time>2009-06-03T13:21:00.000Z</time>
</trkpt>
<trkpt lat="28.110910" lon="-17.245535">
<ele>1143.625000</ele>
<time>2009-06-03T13:21:16.000Z</time>
</trkpt>
<trkpt lat="28.110838" lon="-17.245591">
<ele>1141.222000</ele>
<time>2009-06-03T13:21:30.000Z</time>
</trkpt>
<trkpt lat="28.110847" lon="-17.245624">
<ele>1138.338000</ele>
<time>2009-06-03T13:21:53.000Z</time>
</trkpt>
<trkpt lat="28.110785" lon="-17.245825">
<ele>1135.935000</ele>
<time>2009-06-03T13:22:11.000Z</time>
</trkpt>
<trkpt lat="28.110766" lon="-17.245919">
<ele>1133.532000</ele>
<time>2009-06-03T13:22:25.000Z</time>
</trkpt>
<trkpt lat="28.110702" lon="-17.246064">
<ele>1131.609000</ele>
<time>2009-06-03T13:22:39.000Z</time>
</trkpt>
<trkpt lat="28.110716" lon="-17.246133">
<ele>1134.974000</ele>
<time>2009-06-03T13:23:07.000Z</time>
</trkpt>
<trkpt lat="28.110748" lon="-17.246221">
<ele>1137.858000</ele>
<time>2009-06-03T13:23:30.000Z</time>
</trkpt>
<trkpt lat="28.110673" lon="-17.246324">
<ele>1140.741000</ele>
<time>2009-06-03T13:23:52.000Z</time>
</trkpt>
<trkpt lat="28.110666" lon="-17.246418">
<ele>1143.625000</ele>
<time>2009-06-03T13:24:23.000Z</time>
</trkpt>
<trkpt lat="28.110662" lon="-17.246463">
<ele>1146.510000</ele>
<time>2009-06-03T13:25:51.000Z</time>
</trkpt>
<trkpt lat="28.110628" lon="-17.246588">
<ele>1149.874000</ele>
<time>2009-06-03T13:26:13.000Z</time>
</trkpt>
<trkpt lat="28.110579" lon="-17.246654">
<ele>1151.316000</ele>
<time>2009-06-03T13:26:29.000Z</time>
</trkpt>
<trkpt lat="28.110440" lon="-17.246941">
<ele>1151.316000</ele>
<time>2009-06-03T13:26:50.000Z</time>
</trkpt>
<trkpt lat="28.110281" lon="-17.247142">
<ele>1150.355000</ele>
<time>2009-06-03T13:27:10.000Z</time>
</trkpt>
<trkpt lat="28.110183" lon="-17.247359">
<ele>1152.758000</ele>
<time>2009-06-03T13:27:31.000Z</time>
</trkpt>
<trkpt lat="28.110166" lon="-17.247395">
<ele>1156.123000</ele>
<time>2009-06-03T13:27:52.000Z</time>
</trkpt>
<trkpt lat="28.110096" lon="-17.247592">
<ele>1158.526000</ele>
<time>2009-06-03T13:28:14.000Z</time>
</trkpt>
<trkpt lat="28.110078" lon="-17.247656">
<ele>1161.891000</ele>
<time>2009-06-03T13:28:35.000Z</time>
</trkpt>
<trkpt lat="28.110019" lon="-17.247788">
<ele>1163.813000</ele>
<time>2009-06-03T13:28:54.000Z</time>
</trkpt>
<trkpt lat="28.109987" lon="-17.247892">
<ele>1166.697000</ele>
<time>2009-06-03T13:29:14.000Z</time>
</trkpt>
<trkpt lat="28.109930" lon="-17.248086">
<ele>1168.620000</ele>
<time>2009-06-03T13:29:32.000Z</time>
</trkpt>
<trkpt lat="28.109884" lon="-17.248180">
<ele>1170.062000</ele>
<time>2009-06-03T13:29:48.000Z</time>
</trkpt>
<trkpt lat="28.109870" lon="-17.248233">
<ele>1170.542000</ele>
<time>2009-06-03T13:30:06.000Z</time>
</trkpt>
<trkpt lat="28.109844" lon="-17.248305">
<ele>1170.542000</ele>
<time>2009-06-03T13:30:22.000Z</time>
</trkpt>
<trkpt lat="28.109824" lon="-17.248339">
<ele>1171.023000</ele>
<time>2009-06-03T13:30:46.000Z</time>
</trkpt>
<trkpt lat="28.109831" lon="-17.248359">
<ele>1169.101000</ele>
<time>2009-06-03T13:33:05.000Z</time>
</trkpt>
<trkpt lat="28.109831" lon="-17.248364">
<ele>1171.984000</ele>
<time>2009-06-03T13:47:20.000Z</time>
</trkpt>
<trkpt lat="28.109801" lon="-17.248380">
<ele>1172.465000</ele>
<time>2009-06-03T13:53:54.000Z</time>
</trkpt>
<trkpt lat="28.109818" lon="-17.248337">
<ele>1171.984000</ele>
<time>2009-06-03T13:54:15.000Z</time>
</trkpt>
<trkpt lat="28.109839" lon="-17.248294">
<ele>1171.023000</ele>
<time>2009-06-03T13:54:34.000Z</time>
</trkpt>
<trkpt lat="28.109859" lon="-17.248209">
<ele>1170.542000</ele>
<time>2009-06-03T13:54:53.000Z</time>
</trkpt>
<trkpt lat="28.109886" lon="-17.248076">
<ele>1169.581000</ele>
<time>2009-06-03T13:55:08.000Z</time>
</trkpt>
<trkpt lat="28.109913" lon="-17.248006">
<ele>1168.139000</ele>
<time>2009-06-03T13:55:23.000Z</time>
</trkpt>
<trkpt lat="28.109952" lon="-17.247927">
<ele>1166.217000</ele>
<time>2009-06-03T13:55:38.000Z</time>
</trkpt>
<trkpt lat="28.109976" lon="-17.247854">
<ele>1164.775000</ele>
<time>2009-06-03T13:55:53.000Z</time>
</trkpt>
<trkpt lat="28.109976" lon="-17.247834">
<ele>1163.333000</ele>
<time>2009-06-03T13:56:10.000Z</time>
</trkpt>
<trkpt lat="28.110046" lon="-17.247724">
<ele>1162.852000</ele>
<time>2009-06-03T13:56:26.000Z</time>
</trkpt>
<trkpt lat="28.110118" lon="-17.247643">
<ele>1159.007000</ele>
<time>2009-06-03T13:56:49.000Z</time>
</trkpt>
<trkpt lat="28.110108" lon="-17.247595">
<ele>1156.123000</ele>
<time>2009-06-03T13:57:24.000Z</time>
</trkpt>
<trkpt lat="28.110229" lon="-17.247312">
<ele>1155.161000</ele>
<time>2009-06-03T13:57:42.000Z</time>
</trkpt>
<trkpt lat="28.110343" lon="-17.247139">
<ele>1154.681000</ele>
<time>2009-06-03T13:58:02.000Z</time>
</trkpt>
<trkpt lat="28.110442" lon="-17.246982">
<ele>1155.161000</ele>
<time>2009-06-03T13:58:20.000Z</time>
</trkpt>
<trkpt lat="28.110600" lon="-17.246736">
<ele>1153.239000</ele>
<time>2009-06-03T13:58:47.000Z</time>
</trkpt>
<trkpt lat="28.110615" lon="-17.246681">
<ele>1150.355000</ele>
<time>2009-06-03T13:59:10.000Z</time>
</trkpt>
<trkpt lat="28.110608" lon="-17.246668">
<ele>1146.990000</ele>
<time>2009-06-03T13:59:36.000Z</time>
</trkpt>
<trkpt lat="28.110628" lon="-17.246486">
<ele>1143.625000</ele>
<time>2009-06-03T14:00:04.000Z</time>
</trkpt>
<trkpt lat="28.110721" lon="-17.246361">
<ele>1141.703000</ele>
<time>2009-06-03T14:00:23.000Z</time>
</trkpt>
<trkpt lat="28.110700" lon="-17.246278">
<ele>1138.819000</ele>
<time>2009-06-03T14:00:46.000Z</time>
</trkpt>
<trkpt lat="28.110719" lon="-17.246231">
<ele>1135.454000</ele>
<time>2009-06-03T14:01:11.000Z</time>
</trkpt>
<trkpt lat="28.110697" lon="-17.246184">
<ele>1134.974000</ele>
<time>2009-06-03T14:01:48.000Z</time>
</trkpt>
<trkpt lat="28.110743" lon="-17.246014">
<ele>1137.858000</ele>
<time>2009-06-03T14:02:07.000Z</time>
</trkpt>
<trkpt lat="28.110774" lon="-17.245857">
<ele>1140.741000</ele>
<time>2009-06-03T14:02:26.000Z</time>
</trkpt>
<trkpt lat="28.110807" lon="-17.245721">
<ele>1143.145000</ele>
<time>2009-06-03T14:02:42.000Z</time>
</trkpt>
<trkpt lat="28.110830" lon="-17.245701">
<ele>1146.029000</ele>
<time>2009-06-03T14:02:57.000Z</time>
</trkpt>
<trkpt lat="28.110868" lon="-17.245654">
<ele>1146.990000</ele>
<time>2009-06-03T14:03:15.000Z</time>
</trkpt>
<trkpt lat="28.110910" lon="-17.245614">
<ele>1147.471000</ele>
<time>2009-06-03T14:04:01.000Z</time>
</trkpt>
<trkpt lat="28.110973" lon="-17.245487">
<ele>1148.913000</ele>
<time>2009-06-03T14:04:15.000Z</time>
</trkpt>
<trkpt lat="28.110999" lon="-17.245450">
<ele>1148.913000</ele>
<time>2009-06-03T14:04:19.000Z</time>
</trkpt>
<trkpt lat="28.111017" lon="-17.245261">
<ele>1149.874000</ele>
<time>2009-06-03T14:04:38.000Z</time>
</trkpt>
<trkpt lat="28.111001" lon="-17.245157">
<ele>1148.913000</ele>
<time>2009-06-03T14:04:54.000Z</time>
</trkpt>
<trkpt lat="28.111036" lon="-17.244975">
<ele>1148.913000</ele>
<time>2009-06-03T14:05:11.000Z</time>
</trkpt>
<trkpt lat="28.111090" lon="-17.244766">
<ele>1149.394000</ele>
<time>2009-06-03T14:05:33.000Z</time>
</trkpt>
<trkpt lat="28.111081" lon="-17.244740">
<ele>1149.394000</ele>
<time>2009-06-03T14:05:35.000Z</time>
</trkpt>
<trkpt lat="28.111047" lon="-17.244666">
<ele>1150.355000</ele>
<time>2009-06-03T14:05:51.000Z</time>
</trkpt>
<trkpt lat="28.111160" lon="-17.244541">
<ele>1147.951000</ele>
<time>2009-06-03T14:06:24.000Z</time>
</trkpt>
<trkpt lat="28.111196" lon="-17.244452">
<ele>1147.951000</ele>
<time>2009-06-03T14:06:32.000Z</time>
</trkpt>
<trkpt lat="28.111307" lon="-17.244322">
<ele>1146.510000</ele>
<time>2009-06-03T14:06:48.000Z</time>
</trkpt>
<trkpt lat="28.111340" lon="-17.244258">
<ele>1146.990000</ele>
<time>2009-06-03T14:07:05.000Z</time>
</trkpt>
<trkpt lat="28.111376" lon="-17.244141">
<ele>1146.029000</ele>
<time>2009-06-03T14:07:17.000Z</time>
</trkpt>
<trkpt lat="28.111390" lon="-17.244006">
<ele>1144.106000</ele>
<time>2009-06-03T14:07:33.000Z</time>
</trkpt>
<trkpt lat="28.111383" lon="-17.243816">
<ele>1141.222000</ele>
<time>2009-06-03T14:07:55.000Z</time>
</trkpt>
<trkpt lat="28.111415" lon="-17.243684">
<ele>1140.741000</ele>
<time>2009-06-03T14:08:09.000Z</time>
</trkpt>
<trkpt lat="28.111475" lon="-17.243622">
<ele>1138.819000</ele>
<time>2009-06-03T14:08:22.000Z</time>
</trkpt>
<trkpt lat="28.111539" lon="-17.243643">
<ele>1137.377000</ele>
<time>2009-06-03T14:08:39.000Z</time>
</trkpt>
<trkpt lat="28.111594" lon="-17.243701">
<ele>1134.974000</ele>
<time>2009-06-03T14:08:59.000Z</time>
</trkpt>
<trkpt lat="28.111635" lon="-17.243680">
<ele>1132.090000</ele>
<time>2009-06-03T14:09:18.000Z</time>
</trkpt>
<trkpt lat="28.111764" lon="-17.243575">
<ele>1129.686000</ele>
<time>2009-06-03T14:09:36.000Z</time>
</trkpt>
<trkpt lat="28.111826" lon="-17.243569">
<ele>1127.283000</ele>
<time>2009-06-03T14:09:56.000Z</time>
</trkpt>
<trkpt lat="28.111970" lon="-17.243552">
<ele>1124.880000</ele>
<time>2009-06-03T14:10:17.000Z</time>
</trkpt>
<trkpt lat="28.112073" lon="-17.243560">
<ele>1122.477000</ele>
<time>2009-06-03T14:10:35.000Z</time>
</trkpt>
<trkpt lat="28.112160" lon="-17.243583">
<ele>1121.035000</ele>
<time>2009-06-03T14:10:51.000Z</time>
</trkpt>
<trkpt lat="28.112195" lon="-17.243565">
<ele>1118.151000</ele>
<time>2009-06-03T14:11:09.000Z</time>
</trkpt>
<trkpt lat="28.112224" lon="-17.243655">
<ele>1116.228000</ele>
<time>2009-06-03T14:11:26.000Z</time>
</trkpt>
<trkpt lat="28.112243" lon="-17.243722">
<ele>1114.305000</ele>
<time>2009-06-03T14:11:39.000Z</time>
</trkpt>
<trkpt lat="28.112264" lon="-17.243707">
<ele>1112.383000</ele>
<time>2009-06-03T14:11:58.000Z</time>
</trkpt>
<trkpt lat="28.112350" lon="-17.243676">
<ele>1109.979000</ele>
<time>2009-06-03T14:12:13.000Z</time>
</trkpt>
<trkpt lat="28.112446" lon="-17.243685">
<ele>1107.576000</ele>
<time>2009-06-03T14:12:35.000Z</time>
</trkpt>
<trkpt lat="28.112540" lon="-17.243680">
<ele>1105.173000</ele>
<time>2009-06-03T14:12:51.000Z</time>
</trkpt>
<trkpt lat="28.112728" lon="-17.243725">
<ele>1103.250000</ele>
<time>2009-06-03T14:13:11.000Z</time>
</trkpt>
<trkpt lat="28.112804" lon="-17.243735">
<ele>1101.808000</ele>
<time>2009-06-03T14:13:29.000Z</time>
</trkpt>
<trkpt lat="28.112945" lon="-17.243728">
<ele>1098.924000</ele>
<time>2009-06-03T14:13:46.000Z</time>
</trkpt>
<trkpt lat="28.113047" lon="-17.243732">
<ele>1096.521000</ele>
<time>2009-06-03T14:14:03.000Z</time>
</trkpt>
<trkpt lat="28.113172" lon="-17.243726">
<ele>1093.637000</ele>
<time>2009-06-03T14:14:24.000Z</time>
</trkpt>
<trkpt lat="28.113290" lon="-17.243713">
<ele>1090.272000</ele>
<time>2009-06-03T14:14:46.000Z</time>
</trkpt>
<trkpt lat="28.113394" lon="-17.243697">
<ele>1087.869000</ele>
<time>2009-06-03T14:15:03.000Z</time>
</trkpt>
<trkpt lat="28.113478" lon="-17.243687">
<ele>1085.947000</ele>
<time>2009-06-03T14:15:19.000Z</time>
</trkpt>
<trkpt lat="28.113632" lon="-17.243693">
<ele>1084.024000</ele>
<time>2009-06-03T14:15:40.000Z</time>
</trkpt>
<trkpt lat="28.113724" lon="-17.243785">
<ele>1082.582000</ele>
<time>2009-06-03T14:15:58.000Z</time>
</trkpt>
<trkpt lat="28.113796" lon="-17.243874">
<ele>1081.140000</ele>
<time>2009-06-03T14:16:14.000Z</time>
</trkpt>
<trkpt lat="28.113819" lon="-17.243890">
<ele>1080.659000</ele>
<time>2009-06-03T14:16:17.000Z</time>
</trkpt>
<trkpt lat="28.113974" lon="-17.243990">
<ele>1078.737000</ele>
<time>2009-06-03T14:16:34.000Z</time>
</trkpt>
<trkpt lat="28.114061" lon="-17.244051">
<ele>1077.295000</ele>
<time>2009-06-03T14:16:45.000Z</time>
</trkpt>
<trkpt lat="28.114208" lon="-17.244099">
<ele>1076.333000</ele>
<time>2009-06-03T14:17:00.000Z</time>
</trkpt>
<trkpt lat="28.114274" lon="-17.244075">
<ele>1075.853000</ele>
<time>2009-06-03T14:17:06.000Z</time>
</trkpt>
<trkpt lat="28.114307" lon="-17.244065">
<ele>1075.372000</ele>
<time>2009-06-03T14:17:09.000Z</time>
</trkpt>
<trkpt lat="28.114379" lon="-17.243994">
<ele>1073.930000</ele>
<time>2009-06-03T14:17:18.000Z</time>
</trkpt>
<trkpt lat="28.114499" lon="-17.243883">
<ele>1072.969000</ele>
<time>2009-06-03T14:17:32.000Z</time>
</trkpt>
<trkpt lat="28.114634" lon="-17.243828">
<ele>1071.046000</ele>
<time>2009-06-03T14:17:47.000Z</time>
</trkpt>
<trkpt lat="28.114649" lon="-17.243825">
<ele>1070.565000</ele>
<time>2009-06-03T14:17:48.000Z</time>
</trkpt>
<trkpt lat="28.114811" lon="-17.243808">
<ele>1068.643000</ele>
<time>2009-06-03T14:18:03.000Z</time>
</trkpt>
<trkpt lat="28.114950" lon="-17.243736">
<ele>1067.201000</ele>
<time>2009-06-03T14:18:17.000Z</time>
</trkpt>
<trkpt lat="28.115182" lon="-17.243726">
<ele>1064.797000</ele>
<time>2009-06-03T14:18:38.000Z</time>
</trkpt>
<trkpt lat="28.115314" lon="-17.243772">
<ele>1063.355000</ele>
<time>2009-06-03T14:18:52.000Z</time>
</trkpt>
<trkpt lat="28.115347" lon="-17.243789">
<ele>1062.875000</ele>
<time>2009-06-03T14:18:56.000Z</time>
</trkpt>
<trkpt lat="28.115427" lon="-17.243900">
<ele>1062.394000</ele>
<time>2009-06-03T14:19:06.000Z</time>
</trkpt>
<trkpt lat="28.115504" lon="-17.244044">
<ele>1060.471000</ele>
<time>2009-06-03T14:19:20.000Z</time>
</trkpt>
<trkpt lat="28.115560" lon="-17.244138">
<ele>1059.030000</ele>
<time>2009-06-03T14:19:31.000Z</time>
</trkpt>
<trkpt lat="28.115617" lon="-17.244201">
<ele>1058.068000</ele>
<time>2009-06-03T14:19:40.000Z</time>
</trkpt>
<trkpt lat="28.115763" lon="-17.244294">
<ele>1056.626000</ele>
<time>2009-06-03T14:19:55.000Z</time>
</trkpt>
<trkpt lat="28.115814" lon="-17.244273">
<ele>1055.184000</ele>
<time>2009-06-03T14:20:10.000Z</time>
</trkpt>
<trkpt lat="28.115822" lon="-17.244238">
<ele>1054.704000</ele>
<time>2009-06-03T14:20:12.000Z</time>
</trkpt>
<trkpt lat="28.115826" lon="-17.244046">
<ele>1052.781000</ele>
<time>2009-06-03T14:20:29.000Z</time>
</trkpt>
<trkpt lat="28.115729" lon="-17.243861">
<ele>1050.378000</ele>
<time>2009-06-03T14:20:52.000Z</time>
</trkpt>
<trkpt lat="28.115726" lon="-17.243608">
<ele>1047.974000</ele>
<time>2009-06-03T14:21:17.000Z</time>
</trkpt>
<trkpt lat="28.115628" lon="-17.243296">
<ele>1047.013000</ele>
<time>2009-06-03T14:21:36.000Z</time>
</trkpt>
<trkpt lat="28.115509" lon="-17.243186">
<ele>1044.610000</ele>
<time>2009-06-03T14:21:58.000Z</time>
</trkpt>
<trkpt lat="28.115553" lon="-17.243073">
<ele>1043.168000</ele>
<time>2009-06-03T14:22:15.000Z</time>
</trkpt>
<trkpt lat="28.115698" lon="-17.243131">
<ele>1042.687000</ele>
<time>2009-06-03T14:22:30.000Z</time>
</trkpt>
<trkpt lat="28.115748" lon="-17.243162">
<ele>1042.687000</ele>
<time>2009-06-03T14:22:37.000Z</time>
</trkpt>
<trkpt lat="28.115841" lon="-17.243208">
<ele>1042.687000</ele>
<time>2009-06-03T14:22:53.000Z</time>
</trkpt>
<trkpt lat="28.115833" lon="-17.243206">
<ele>1043.168000</ele>
<time>2009-06-03T14:23:35.000Z</time>
</trkpt>
</trkseg>
</trk>
</gpx>
